createdAt,value
2018-01-14T00:01:10.828Z,49.25
2018-01-14T00:03:39.195Z,49.74
2018-01-14T00:06:07.966Z,51.36
2018-01-14T00:08:36.341Z,52.56
2018-01-14T00:11:05.594Z,53.25
2018-01-14T00:13:33.975Z,53.28
2018-01-14T00:16:02.350Z,53.56
2018-01-14T00:18:30.708Z,52.92
2018-01-14T00:20:59.077Z,53.13
2018-01-14T00:23:27.911Z,53.69
2018-01-14T00:25:56.314Z,54.50
2018-01-14T00:28:24.670Z,54.08
2018-01-14T00:30:53.157Z,53.39
2018-01-14T00:33:21.520Z,53.80
2018-01-14T00:35:49.933Z,54.40
2018-01-14T00:38:18.391Z,55.16
2018-01-14T00:40:46.776Z,54.85
2018-01-14T00:43:15.145Z,55.96
2018-01-14T00:45:43.512Z,55.45
2018-01-14T00:48:11.872Z,55.04
2018-01-14T00:50:40.308Z,54.35
2018-01-14T00:53:08.688Z,55.33
2018-01-14T00:55:37.161Z,54.74
2018-01-14T00:58:05.529Z,55.25
2018-01-14T01:00:33.914Z,54.03
2018-01-14T01:03:02.298Z,55.42
2018-01-14T01:05:30.669Z,54.81
2018-01-14T01:07:59.042Z,55.53
2018-01-14T01:10:27.403Z,54.88
2018-01-14T01:12:55.760Z,55.19
2018-01-14T01:15:24.127Z,54.51
2018-01-14T01:17:52.898Z,54.51
2018-01-14T01:20:21.253Z,55.88
2018-01-14T01:22:50.043Z,55.07
2018-01-14T01:25:18.819Z,54.87
2018-01-14T01:27:47.177Z,54.97
2018-01-14T01:30:15.589Z,56.38
2018-01-14T01:32:44.382Z,55.06
2018-01-14T01:35:12.767Z,55.79
2018-01-14T01:37:41.215Z,55.46
2018-01-14T01:40:09.573Z,54.13
2018-01-14T01:42:38.010Z,54.32
2018-01-14T01:45:06.505Z,55.33
2018-01-14T01:47:35.356Z,55.28
2018-01-14T01:50:03.716Z,54.69
2018-01-14T01:52:32.096Z,54.44
2018-01-14T01:55:00.452Z,55.15
2018-01-14T01:57:28.828Z,55.01
2018-01-14T01:59:57.216Z,55.27
2018-01-14T02:02:25.588Z,53.86
2018-01-14T02:04:54.108Z,54.39
2018-01-14T02:07:22.479Z,54.79
2018-01-14T02:09:50.848Z,56.13
2018-01-14T02:12:20.227Z,55.94
2018-01-14T02:14:48.633Z,54.98
2018-01-14T02:17:16.987Z,53.80
2018-01-14T02:19:45.343Z,54.67
2018-01-14T02:22:14.131Z,56.19
2018-01-14T02:24:42.577Z,55.10
2018-01-14T02:27:10.945Z,55.60
2018-01-14T02:29:39.323Z,54.86
2018-01-14T02:32:07.695Z,53.39
2018-01-14T02:34:36.061Z,55.14
2018-01-14T02:37:05.277Z,54.51
2018-01-14T02:39:33.646Z,55.00
2018-01-14T02:42:02.047Z,54.25
2018-01-14T02:44:30.428Z,53.88
2018-01-14T02:46:58.781Z,54.49
2018-01-14T02:49:27.179Z,55.66
2018-01-14T02:51:55.560Z,55.39
2018-01-14T02:54:23.956Z,54.66
2018-01-14T02:56:52.324Z,54.49
2018-01-14T02:59:20.711Z,53.89
2018-01-14T03:01:49.080Z,55.47
2018-01-14T03:04:17.450Z,54.96
2018-01-14T03:06:45.905Z,54.08
2018-01-14T03:09:14.332Z,53.87
2018-01-14T03:11:42.806Z,55.21
2018-01-14T03:14:11.384Z,55.16
2018-01-14T03:16:39.749Z,55.52
2018-01-14T03:19:08.140Z,55.87
2018-01-14T03:21:36.621Z,54.61
2018-01-14T03:24:04.976Z,55.07
2018-01-14T03:26:33.380Z,55.59
2018-01-14T03:29:01.840Z,55.56
2018-01-14T03:31:30.234Z,55.50
2018-01-14T03:33:58.599Z,54.42
2018-01-14T03:36:26.978Z,55.83
2018-01-14T03:38:55.332Z,54.85
2018-01-14T03:41:23.758Z,54.88
2018-01-14T03:43:52.136Z,55.32
2018-01-14T03:46:20.492Z,55.05
2018-01-14T03:48:48.885Z,55.53
2018-01-14T03:51:17.276Z,55.23
2018-01-14T03:53:45.634Z,54.55
2018-01-14T03:56:14.046Z,55.22
2018-01-14T03:58:42.678Z,56.38
2018-01-14T04:01:11.086Z,57.02
2018-01-14T04:03:39.467Z,56.11
2018-01-14T04:06:07.847Z,55.31
2018-01-14T04:11:10.696Z,56.00
2018-01-14T04:13:39.450Z,54.43
2018-01-14T04:16:07.810Z,55.00
2018-01-14T04:18:37.103Z,54.51
2018-01-14T04:21:05.507Z,54.84
2018-01-14T04:23:33.860Z,55.72
2018-01-14T04:26:02.268Z,55.99
2018-01-14T04:28:30.642Z,56.15
2018-01-14T04:30:59.020Z,55.72
2018-01-14T04:33:28.183Z,55.49
2018-01-14T04:35:56.575Z,54.52
2018-01-14T04:38:24.951Z,55.24
2018-01-14T04:40:53.332Z,55.21
2018-01-14T04:43:21.716Z,56.55
2018-01-14T04:45:50.076Z,56.49
2018-01-14T04:48:18.454Z,56.00
2018-01-14T04:50:46.856Z,55.35
2018-01-14T04:53:15.338Z,55.69
2018-01-14T04:55:43.699Z,55.40
2018-01-14T04:58:12.144Z,56.27
2018-01-14T05:00:40.924Z,55.67
2018-01-14T05:03:09.674Z,55.88
2018-01-14T05:05:38.047Z,56.87
2018-01-14T05:08:06.408Z,56.88
2018-01-14T05:10:34.804Z,55.52
2018-01-14T05:13:03.180Z,55.23
2018-01-14T05:15:31.541Z,54.48
2018-01-14T05:17:59.935Z,56.14
2018-01-14T05:20:28.582Z,56.97
2018-01-14T05:22:57.000Z,56.47
2018-01-14T05:25:25.385Z,56.19
2018-01-14T05:27:53.760Z,56.34
2018-01-14T05:30:22.138Z,57.72
2018-01-14T05:32:50.583Z,57.05
2018-01-14T05:35:18.943Z,56.58
2018-01-14T05:37:47.719Z,55.80
2018-01-14T05:40:16.165Z,56.80
2018-01-14T05:42:45.467Z,56.78
2018-01-14T05:45:13.846Z,56.50
2018-01-14T05:47:42.221Z,56.67
2018-01-14T05:50:10.604Z,56.12
2018-01-14T05:52:38.979Z,56.41
2018-01-14T05:55:07.343Z,56.89
2018-01-14T05:57:35.751Z,56.66
2018-01-14T06:00:04.116Z,56.42
2018-01-14T06:02:32.503Z,57.04
2018-01-14T06:05:00.862Z,56.97
2018-01-14T06:07:29.239Z,57.45
2018-01-14T06:09:57.642Z,57.97
2018-01-14T06:12:26.020Z,57.91
2018-01-14T06:14:55.036Z,57.14
2018-01-14T06:17:23.391Z,56.23
2018-01-14T06:19:51.757Z,57.19
2018-01-14T06:22:20.123Z,56.99
2018-01-14T06:24:48.481Z,56.76
2018-01-14T06:27:16.847Z,58.06
2018-01-14T06:29:45.227Z,57.73
2018-01-14T06:32:13.666Z,58.10
2018-01-14T06:34:42.060Z,58.54
2018-01-14T06:37:10.521Z,58.36
2018-01-14T06:39:38.884Z,58.69
2018-01-14T06:42:07.259Z,58.55
2018-01-14T06:44:35.631Z,58.80
2018-01-14T06:47:04.003Z,58.39
2018-01-14T06:49:32.417Z,59.44
2018-01-14T06:52:00.780Z,58.00
2018-01-14T06:54:29.253Z,58.28
2018-01-14T06:56:57.636Z,58.56
2018-01-14T06:59:25.991Z,59.33
2018-01-14T07:01:54.508Z,59.05
2018-01-14T07:04:23.316Z,59.08
2018-01-14T07:06:51.680Z,59.69
2018-01-14T07:09:20.155Z,58.96
2018-01-14T07:11:48.535Z,58.54
2018-01-14T07:14:16.912Z,58.99
2018-01-14T07:16:45.291Z,58.98
2018-01-14T07:19:13.850Z,58.76
2018-01-14T07:21:42.579Z,58.95
2018-01-14T07:24:10.939Z,59.34
2018-01-14T07:26:39.412Z,58.71
2018-01-14T07:29:07.778Z,58.92
2018-01-14T07:31:36.158Z,59.44
2018-01-14T07:34:04.796Z,58.97
2018-01-14T07:36:33.369Z,57.66
2018-01-14T07:39:01.728Z,57.83
2018-01-14T07:41:30.203Z,57.21
2018-01-14T07:43:58.599Z,58.06
2018-01-14T07:46:26.976Z,58.46
2018-01-14T07:48:55.324Z,58.24
2018-01-14T07:51:23.751Z,58.30
2018-01-14T07:53:52.115Z,56.98
2018-01-14T07:56:20.495Z,56.28
2018-01-14T07:58:48.941Z,55.63
2018-01-14T08:01:17.443Z,54.84
2018-01-14T08:03:45.800Z,54.57
2018-01-14T08:06:14.308Z,53.66
2018-01-14T08:08:42.685Z,53.58
2018-01-14T08:11:11.070Z,53.57
2018-01-14T08:13:39.467Z,52.98
2018-01-14T08:16:07.831Z,52.67
2018-01-14T08:18:36.205Z,52.14
2018-01-14T08:21:04.568Z,51.72
2018-01-14T08:23:32.963Z,51.05
2018-01-14T08:26:01.441Z,50.06
2018-01-14T08:28:29.821Z,48.16
2018-01-14T08:30:58.404Z,46.94
2018-01-14T08:33:26.772Z,45.97
2018-01-14T08:35:55.151Z,45.58
2018-01-14T08:38:23.506Z,44.42
2018-01-14T08:40:51.860Z,43.96
2018-01-14T08:43:20.647Z,43.70
2018-01-14T08:45:49.387Z,43.33
2018-01-14T08:48:17.756Z,42.47
2018-01-14T08:50:46.148Z,41.34
2018-01-14T08:53:14.530Z,40.50
2018-01-14T08:55:42.920Z,41.25
2018-01-14T08:58:11.289Z,42.52
2018-01-14T09:00:39.860Z,42.64
2018-01-14T09:03:08.211Z,42.51
2018-01-14T09:05:36.591Z,42.75
2018-01-14T09:08:05.012Z,42.23
2018-01-14T09:10:33.395Z,41.06
2018-01-14T09:13:01.967Z,39.35
2018-01-14T09:15:30.335Z,40.40
2018-01-14T09:17:58.736Z,41.21
2018-01-14T09:20:27.124Z,42.20
2018-01-14T09:22:55.484Z,41.58
2018-01-14T09:25:23.861Z,43.10
2018-01-14T09:27:52.246Z,43.97
2018-01-14T09:30:38.440Z,44.51
2018-01-14T09:33:06.925Z,46.70
2018-01-14T09:35:35.312Z,47.39
2018-01-14T09:38:03.675Z,45.91
2018-01-14T09:40:32.078Z,45.87
2018-01-14T09:43:00.426Z,45.96
2018-01-14T09:45:28.820Z,46.46
2018-01-14T09:47:57.193Z,46.25
2018-01-14T09:50:25.674Z,47.75
2018-01-14T09:52:54.036Z,47.77
2018-01-14T09:55:22.510Z,49.19
2018-01-14T09:57:50.886Z,49.34
2018-01-14T10:00:19.367Z,49.20
2018-01-14T10:02:47.958Z,48.62
2018-01-14T10:05:16.359Z,49.17
2018-01-14T10:07:44.722Z,50.11
2018-01-14T10:10:13.096Z,50.91
2018-01-14T10:12:41.459Z,49.83
2018-01-14T10:15:09.847Z,48.13
2018-01-14T10:17:38.217Z,48.51
2018-01-14T10:20:06.571Z,49.46
2018-01-14T10:22:35.327Z,49.18
2018-01-14T10:25:03.688Z,49.76
2018-01-14T10:27:32.064Z,49.78
2018-01-14T10:30:00.868Z,50.72
2018-01-14T10:32:29.296Z,51.03
2018-01-14T10:34:57.898Z,49.57
2018-01-14T10:37:26.406Z,49.23
2018-01-14T10:39:56.622Z,50.72
2018-01-14T10:42:25.622Z,51.97
2018-01-14T10:44:53.990Z,50.61
2018-01-14T10:47:22.384Z,51.72
2018-01-14T10:49:50.740Z,51.11
2018-01-14T10:52:19.128Z,51.37
2018-01-14T10:54:47.493Z,49.34
2018-01-14T10:57:15.924Z,48.01
2018-01-14T10:59:44.676Z,49.18
2018-01-14T11:02:13.048Z,49.32
2018-01-14T11:04:42.179Z,50.17
2018-01-14T11:07:11.009Z,50.61
2018-01-14T11:09:39.371Z,49.24
2018-01-14T11:12:07.799Z,49.90
2018-01-14T11:14:36.249Z,49.04
2018-01-14T11:17:04.656Z,46.85
2018-01-14T11:19:33.008Z,47.70
2018-01-14T11:22:01.379Z,49.36
2018-01-14T11:24:29.737Z,48.75
2018-01-14T11:26:58.514Z,48.80
2018-01-14T11:29:38.632Z,49.64
2018-01-14T11:32:07.003Z,49.26
2018-01-14T11:34:35.355Z,49.95
2018-01-14T11:37:03.714Z,49.52
2018-01-14T11:39:32.124Z,48.64
2018-01-14T11:42:00.509Z,48.60
2018-01-14T11:44:28.915Z,48.40
2018-01-14T11:46:57.270Z,48.43
2018-01-14T11:49:25.687Z,48.58
2018-01-14T11:51:54.552Z,49.76
2018-01-14T11:54:22.911Z,49.42
2018-01-14T11:56:51.312Z,49.20
2018-01-14T11:59:19.684Z,47.96
2018-01-14T12:01:48.048Z,48.90
2018-01-14T12:04:16.464Z,48.13
2018-01-14T12:06:44.901Z,48.44
2018-01-14T12:09:13.336Z,49.23
2018-01-14T12:11:41.958Z,48.90
2018-01-14T12:14:10.375Z,47.87
2018-01-14T12:16:38.741Z,49.03
2018-01-14T12:19:07.127Z,49.68
2018-01-14T12:21:35.505Z,48.77
2018-01-14T12:24:03.865Z,49.59
2018-01-14T12:26:32.376Z,49.77
2018-01-14T12:29:00.741Z,49.43
2018-01-14T12:31:29.123Z,49.66
2018-01-14T12:37:18.975Z,48.81
2018-01-14T12:39:47.815Z,48.33
2018-01-14T12:42:16.182Z,47.76
2018-01-14T12:44:44.565Z,48.20
2018-01-14T12:47:12.939Z,48.36
2018-01-14T12:49:41.328Z,48.82
2018-01-14T12:52:09.718Z,49.32
2018-01-14T12:54:38.099Z,48.71
2018-01-14T12:57:06.479Z,48.40
2018-01-14T12:59:35.110Z,47.51
2018-01-14T13:02:04.831Z,48.85
2018-01-14T13:04:33.202Z,48.40
2018-01-14T13:07:02.478Z,47.29
2018-01-14T13:11:35.261Z,47.33
2018-01-14T13:14:03.634Z,47.82
2018-01-14T13:16:32.110Z,47.39
2018-01-14T13:19:00.472Z,47.97
2018-01-14T13:21:28.861Z,49.40
2018-01-14T13:23:57.236Z,50.41
2018-01-14T13:26:25.737Z,50.71
2018-01-14T13:28:54.088Z,50.30
2018-01-14T13:31:22.475Z,48.89
2018-01-14T13:33:50.831Z,48.99
2018-01-14T13:36:19.279Z,48.44
2018-01-14T13:38:48.120Z,49.82
2018-01-14T13:41:16.492Z,49.39
2018-01-14T13:43:44.858Z,50.64
2018-01-14T13:46:13.261Z,51.62
2018-01-14T13:48:41.612Z,51.82
2018-01-14T13:51:10.053Z,52.28
2018-01-14T13:53:38.912Z,50.71
2018-01-14T13:56:07.297Z,51.57
2018-01-14T13:58:35.649Z,50.50
2018-01-14T14:01:04.015Z,50.46
2018-01-14T14:03:32.422Z,51.32
2018-01-14T14:06:00.831Z,51.95
2018-01-14T14:08:29.227Z,52.00
2018-01-14T14:10:58.107Z,52.96
2018-01-14T14:13:26.469Z,53.32
2018-01-14T14:15:54.820Z,53.63
2018-01-14T14:18:23.199Z,54.34
2018-01-14T14:20:51.557Z,53.25
2018-01-14T14:23:19.943Z,53.16
2018-01-14T14:25:48.352Z,53.25
2018-01-14T14:28:16.703Z,53.61
2018-01-14T14:30:45.076Z,54.59
2018-01-14T14:33:13.480Z,53.93
2018-01-14T14:35:41.875Z,54.06
2018-01-14T14:38:10.236Z,53.74
2018-01-14T14:40:38.597Z,53.66
2018-01-14T14:43:06.947Z,53.36
2018-01-14T14:45:35.758Z,53.65
2018-01-14T14:50:39.101Z,54.35
2018-01-14T14:53:07.510Z,53.53
2018-01-14T14:55:35.869Z,53.42
2018-01-14T14:58:04.220Z,53.35
2018-01-14T15:00:32.576Z,55.14
2018-01-14T15:03:00.984Z,54.46
2018-01-14T15:05:29.372Z,53.64
2018-01-14T15:07:57.729Z,54.06
2018-01-14T15:10:26.084Z,54.01
2018-01-14T15:12:54.444Z,53.84
2018-01-14T15:15:23.227Z,56.20
2018-01-14T15:17:51.984Z,56.67
2018-01-14T15:20:20.354Z,55.29
2018-01-14T15:22:48.757Z,56.00
2018-01-14T15:25:17.116Z,57.06
2018-01-14T15:27:45.508Z,56.24
2018-01-14T15:30:13.949Z,55.97
2018-01-14T15:32:42.296Z,55.28
2018-01-14T15:35:11.168Z,56.21
2018-01-14T15:37:39.625Z,57.14
2018-01-14T15:40:07.980Z,56.31
2018-01-14T15:42:36.348Z,55.50
2018-01-14T15:45:04.770Z,55.87
2018-01-14T15:47:33.139Z,56.98
2018-01-14T15:50:01.500Z,56.63
2018-01-14T15:52:29.855Z,56.25
2018-01-14T15:54:58.276Z,56.84
2018-01-14T15:57:26.652Z,56.57
2018-01-14T15:59:55.036Z,56.32
2018-01-14T16:02:23.407Z,55.70
2018-01-14T16:04:51.801Z,55.72
2018-01-14T16:07:20.273Z,55.70
2018-01-14T16:09:48.680Z,56.17
2018-01-14T16:12:17.925Z,54.92
2018-01-14T16:14:46.279Z,54.67
2018-01-14T16:17:14.700Z,55.43
2018-01-14T16:19:43.052Z,55.91
2018-01-14T16:22:11.464Z,56.36
2018-01-14T16:24:39.840Z,56.24
2018-01-14T16:27:08.199Z,55.15
2018-01-14T16:29:36.580Z,54.12
2018-01-14T16:32:04.947Z,55.12
2018-01-14T16:34:33.303Z,55.82
2018-01-14T16:37:02.068Z,56.53
2018-01-14T16:39:30.534Z,57.39
2018-01-14T16:41:58.933Z,56.79
2018-01-14T16:44:27.389Z,55.91
2018-01-14T16:46:55.751Z,56.32
2018-01-14T16:49:24.124Z,56.48
2018-01-14T16:51:52.516Z,55.56
2018-01-14T16:54:20.919Z,56.19
2018-01-14T16:56:49.284Z,55.73
2018-01-14T16:59:17.642Z,55.99
2018-01-14T17:01:46.000Z,55.65
2018-01-14T17:04:14.353Z,56.79
2018-01-14T17:06:43.129Z,55.83
2018-01-14T17:09:11.543Z,54.79
2018-01-14T17:11:39.872Z,55.52
2018-01-14T17:14:08.417Z,55.09
2018-01-14T17:16:36.779Z,55.58
2018-01-14T17:19:05.316Z,56.31
2018-01-14T17:21:33.677Z,55.56
2018-01-14T17:24:02.034Z,56.02
2018-01-14T17:26:30.388Z,56.79
2018-01-14T17:28:59.337Z,57.30
2018-01-14T17:31:27.773Z,57.14
2018-01-14T17:33:56.152Z,56.75
2018-01-14T17:36:24.513Z,57.83
2018-01-14T17:38:53.360Z,57.52
2018-01-14T17:41:21.725Z,57.38
2018-01-14T17:43:50.088Z,57.31
2018-01-14T17:46:18.452Z,57.38
2018-01-14T17:48:46.800Z,57.35
2018-01-14T17:51:15.178Z,56.61
2018-01-14T17:53:43.657Z,57.00
2018-01-14T17:56:12.125Z,58.34
2018-01-14T17:58:40.490Z,58.73
2018-01-14T18:01:08.849Z,58.79
2018-01-14T18:03:37.211Z,57.53
2018-01-14T18:06:05.629Z,56.75
2018-01-14T18:08:33.998Z,57.43
2018-01-14T18:11:02.362Z,57.47
2018-01-14T18:13:30.729Z,57.76
2018-01-14T18:15:59.098Z,58.33
2018-01-14T18:18:27.459Z,58.35
2018-01-14T18:20:56.325Z,58.21
2018-01-14T18:23:24.701Z,57.81
2018-01-14T18:25:53.076Z,57.84
2018-01-14T18:28:21.478Z,58.08
2018-01-14T18:30:50.245Z,58.51
2018-01-14T18:33:18.608Z,57.56
2018-01-14T18:35:47.014Z,58.89
2018-01-14T18:38:15.517Z,59.14
2018-01-14T18:40:44.044Z,59.42
2018-01-14T18:43:12.392Z,59.06
2018-01-14T18:46:13.472Z,59.68
2018-01-14T18:48:41.921Z,60.69
2018-01-14T18:51:10.332Z,60.01
2018-01-14T18:53:38.712Z,60.80
2018-01-14T18:56:07.080Z,58.98
2018-01-14T18:59:43.355Z,59.39
2018-01-14T19:02:11.759Z,58.43
2018-01-14T19:04:40.120Z,58.16
2018-01-14T19:07:09.151Z,58.89
2018-01-14T19:09:37.496Z,60.07
2018-01-14T19:12:05.868Z,60.21
2018-01-14T19:14:34.228Z,59.58
2018-01-14T19:17:02.612Z,59.08
2018-01-14T19:19:30.975Z,59.24
2018-01-14T19:21:59.333Z,59.35
2018-01-14T19:24:28.087Z,60.10
2018-01-14T19:26:56.566Z,59.77
2018-01-14T19:29:24.930Z,60.86
2018-01-14T19:31:53.409Z,59.75
2018-01-14T19:34:21.776Z,59.64
2018-01-14T19:36:50.137Z,60.25
2018-01-14T19:39:18.510Z,60.90
2018-01-14T19:41:46.893Z,59.02
2018-01-14T19:44:15.315Z,60.54
2018-01-14T19:46:43.884Z,60.94
2018-01-14T19:49:12.251Z,60.49
2018-01-14T19:51:40.627Z,60.36
2018-01-14T19:54:09.128Z,62.37
2018-01-14T19:56:37.590Z,62.44
2018-01-14T19:59:05.950Z,61.98
2018-01-14T20:01:34.746Z,61.38
2018-01-14T20:04:03.097Z,61.16
2018-01-14T20:06:31.855Z,61.41
2018-01-14T20:09:00.216Z,61.31
2018-01-14T20:11:28.605Z,60.43
2018-01-14T20:13:56.990Z,60.57
2018-01-14T20:16:25.374Z,60.42
2018-01-14T20:18:53.755Z,60.34
2018-01-14T20:21:22.232Z,60.14
2018-01-14T20:23:50.605Z,59.18
2018-01-14T20:26:19.058Z,59.67
2018-01-14T20:28:47.428Z,60.76
2018-01-14T20:31:15.804Z,60.72
2018-01-14T20:33:44.337Z,59.25
2018-01-14T20:36:12.712Z,59.47
2018-01-14T20:38:41.141Z,59.15
2018-01-14T20:41:09.480Z,59.97
2018-01-14T20:43:37.955Z,60.41
2018-01-14T20:46:06.324Z,60.01
2018-01-14T20:48:34.712Z,59.86
2018-01-14T20:51:03.076Z,58.73
2018-01-14T20:53:31.469Z,58.24
2018-01-14T20:55:59.842Z,58.39
2018-01-14T20:58:28.197Z,58.75
2018-01-14T21:00:56.576Z,58.85
2018-01-14T21:03:24.934Z,59.07
2018-01-14T21:05:53.357Z,59.52
2018-01-14T21:08:21.766Z,58.83
2018-01-14T21:10:50.620Z,58.91
2018-01-14T21:13:19.053Z,59.85
2018-01-14T21:15:47.419Z,59.12
2018-01-14T21:18:16.180Z,59.36
2018-01-14T21:20:44.540Z,58.75
2018-01-14T21:23:12.914Z,59.07
2018-01-14T21:25:41.267Z,59.71
2018-01-14T21:28:09.625Z,59.79
2018-01-14T21:30:38.391Z,60.31
2018-01-14T21:33:06.858Z,60.08
2018-01-14T21:35:35.224Z,60.32
2018-01-14T21:38:03.589Z,59.46
2018-01-14T21:40:31.944Z,59.31
2018-01-14T21:43:00.305Z,59.19
2018-01-14T21:45:29.075Z,57.60
2018-01-14T21:47:57.462Z,57.39
2018-01-14T21:50:25.824Z,57.91
2018-01-14T21:52:54.200Z,57.93
2018-01-14T21:55:22.650Z,58.04
2018-01-14T21:57:50.999Z,57.49
2018-01-14T22:00:19.379Z,56.11
2018-01-14T22:02:47.747Z,57.55
2018-01-14T22:05:16.594Z,57.02
2018-01-14T22:07:44.980Z,57.12
2018-01-14T22:10:13.342Z,57.17
2018-01-14T22:12:41.730Z,57.73
2018-01-14T22:15:10.119Z,56.70
2018-01-14T22:17:38.479Z,58.61
2018-01-14T22:20:06.838Z,58.17
2018-01-14T22:22:35.195Z,58.47
2018-01-14T22:25:03.571Z,58.51
2018-01-14T22:27:32.002Z,57.91
2018-01-14T22:30:00.361Z,58.55
2018-01-14T22:32:28.782Z,57.31
2018-01-14T22:34:57.141Z,57.77
2018-01-14T22:37:25.507Z,56.75
2018-01-14T22:39:53.903Z,56.93
2018-01-14T22:42:22.272Z,56.80
2018-01-14T22:44:50.639Z,57.18
2018-01-14T22:47:19.037Z,57.63
2018-01-14T22:49:47.401Z,57.87
2018-01-14T22:52:15.758Z,57.33
2018-01-14T22:54:44.128Z,57.54
2018-01-14T22:57:12.517Z,58.00
2018-01-14T22:59:40.881Z,57.34
2018-01-14T23:02:09.260Z,58.39
2018-01-14T23:04:37.640Z,57.75
2018-01-14T23:07:06.059Z,56.94
2018-01-14T23:09:34.424Z,57.82
2018-01-14T23:12:02.805Z,57.92
2018-01-14T23:14:31.189Z,58.43
2018-01-14T23:16:59.572Z,58.64
2018-01-14T23:19:27.967Z,60.64
2018-01-14T23:21:56.353Z,59.65
2018-01-14T23:24:24.719Z,59.05
2018-01-14T23:26:53.086Z,58.58
2018-01-14T23:29:21.469Z,58.00
2018-01-14T23:31:49.833Z,57.77
2018-01-14T23:34:18.204Z,58.64
2018-01-14T23:36:46.597Z,58.67
2018-01-14T23:39:14.948Z,57.83
2018-01-14T23:41:43.320Z,58.33
2018-01-14T23:44:11.683Z,57.66
2018-01-14T23:46:40.116Z,58.25
2018-01-14T23:49:08.466Z,59.14
2018-01-14T23:51:36.835Z,58.33
2018-01-14T23:54:05.259Z,58.45
2018-01-14T23:56:33.636Z,57.75
2018-01-14T23:59:02.016Z,57.52
